sensor_id;sensor_type;location;lat;lon;timestamp;P1;durP1;ratioP1;P2;durP2;ratioP2
27424;SDS011;15244;49.088;11.886;2023-06-24T00:01:39;3.58;;;3.28;;
27424;SDS011;15244;49.088;11.886;2023-06-24T00:06:40;3.70;;;2.72;;
27424;SDS011;15244;49.088;11.886;2023-06-24T00:11:42;5.03;;;3.13;;
27424;SDS011;15244;49.088;11.886;2023-06-24T00:16:44;3.63;;;3.42;;
27424;SDS011;15244;49.088;11.886;2023-06-24T00:21:46;3.80;;;3.60;;
27424;SDS011;15244;49.088;11.886;2023-06-24T00:26:48;3.50;;;3.20;;
27424;SDS011;15244;49.088;11.886;2023-06-24T00:31:50;4.18;;;3.83;;
27424;SDS011;15244;49.088;11.886;2023-06-24T00:36:52;4.13;;;3.80;;
27424;SDS011;15244;49.088;11.886;2023-06-24T00:41:53;3.78;;;3.47;;
27424;SDS011;15244;49.088;11.886;2023-06-24T00:46:55;4.22;;;3.92;;
27424;SDS011;15244;49.088;11.886;2023-06-24T00:51:57;4.10;;;3.88;;
27424;SDS011;15244;49.088;11.886;2023-06-24T00:57:02;4.45;;;4.15;;
27424;SDS011;15244;49.088;11.886;2023-06-24T01:02:04;5.38;;;4.20;;
27424;SDS011;15244;49.088;11.886;2023-06-24T01:07:08;4.53;;;4.13;;
27424;SDS011;15244;49.088;11.886;2023-06-24T01:12:10;4.70;;;4.20;;
27424;SDS011;15244;49.088;11.886;2023-06-24T01:17:13;4.93;;;4.53;;
27424;SDS011;15244;49.088;11.886;2023-06-24T01:22:37;4.45;;;4.15;;
27424;SDS011;15244;49.088;11.886;2023-06-24T01:33:40;4.30;;;3.92;;
27424;SDS011;15244;49.088;11.886;2023-06-24T01:38:54;4.97;;;4.65;;
27424;SDS011;15244;49.088;11.886;2023-06-24T01:43:59;5.75;;;5.35;;
27424;SDS011;15244;49.088;11.886;2023-06-24T01:49:03;5.35;;;5.05;;
27424;SDS011;15244;49.088;11.886;2023-06-24T01:54:10;5.40;;;4.95;;
27424;SDS011;15244;49.088;11.886;2023-06-24T01:59:15;5.82;;;5.30;;
27424;SDS011;15244;49.088;11.886;2023-06-24T02:04:18;5.68;;;5.15;;
27424;SDS011;15244;49.088;11.886;2023-06-24T02:09:22;6.07;;;5.60;;
27424;SDS011;15244;49.088;11.886;2023-06-24T02:14:26;5.93;;;5.53;;
27424;SDS011;15244;49.088;11.886;2023-06-24T02:19:30;5.93;;;5.38;;
27424;SDS011;15244;49.088;11.886;2023-06-24T02:24:32;6.75;;;6.15;;
27424;SDS011;15244;49.088;11.886;2023-06-24T02:29:35;6.75;;;5.65;;
27424;SDS011;15244;49.088;11.886;2023-06-24T02:34:39;6.15;;;5.63;;
27424;SDS011;15244;49.088;11.886;2023-06-24T02:39:41;6.43;;;5.93;;
27424;SDS011;15244;49.088;11.886;2023-06-24T02:44:46;6.30;;;5.80;;
27424;SDS011;15244;49.088;11.886;2023-06-24T02:49:48;6.55;;;6.05;;
27424;SDS011;15244;49.088;11.886;2023-06-24T02:54:50;7.03;;;6.35;;
27424;SDS011;15244;49.088;11.886;2023-06-24T03:00:02;6.55;;;5.97;;
27424;SDS011;15244;49.088;11.886;2023-06-24T03:05:21;5.72;;;5.25;;
27424;SDS011;15244;49.088;11.886;2023-06-24T03:10:29;6.47;;;6.07;;
27424;SDS011;15244;49.088;11.886;2023-06-24T03:15:31;6.00;;;5.47;;
27424;SDS011;15244;49.088;11.886;2023-06-24T03:20:35;6.18;;;5.68;;
27424;SDS011;15244;49.088;11.886;2023-06-24T03:25:43;10.10;;;6.15;;
27424;SDS011;15244;49.088;11.886;2023-06-24T03:30:45;5.97;;;5.57;;
27424;SDS011;15244;49.088;11.886;2023-06-24T03:35:51;5.93;;;5.53;;
27424;SDS011;15244;49.088;11.886;2023-06-24T03:40:57;6.47;;;5.75;;
27424;SDS011;15244;49.088;11.886;2023-06-24T03:45:59;5.70;;;5.30;;
27424;SDS011;15244;49.088;11.886;2023-06-24T03:51:01;6.57;;;5.70;;
27424;SDS011;15244;49.088;11.886;2023-06-24T03:56:04;5.25;;;4.95;;
27424;SDS011;15244;49.088;11.886;2023-06-24T04:01:06;5.85;;;5.45;;
27424;SDS011;15244;49.088;11.886;2023-06-24T04:06:07;6.80;;;5.70;;
27424;SDS011;15244;49.088;11.886;2023-06-24T04:11:09;5.85;;;5.45;;
27424;SDS011;15244;49.088;11.886;2023-06-24T04:16:11;5.70;;;5.20;;
27424;SDS011;15244;49.088;11.886;2023-06-24T04:21:12;5.80;;;5.50;;
27424;SDS011;15244;49.088;11.886;2023-06-24T04:26:15;7.07;;;5.50;;
27424;SDS011;15244;49.088;11.886;2023-06-24T04:31:17;5.50;;;5.10;;
27424;SDS011;15244;49.088;11.886;2023-06-24T04:36:19;5.38;;;4.97;;
27424;SDS011;15244;49.088;11.886;2023-06-24T04:41:21;4.80;;;4.50;;
27424;SDS011;15244;49.088;11.886;2023-06-24T04:46:23;5.65;;;5.25;;
27424;SDS011;15244;49.088;11.886;2023-06-24T04:51:24;5.70;;;5.28;;
27424;SDS011;15244;49.088;11.886;2023-06-24T04:56:27;5.28;;;4.88;;
27424;SDS011;15244;49.088;11.886;2023-06-24T05:01:29;5.32;;;5.00;;
27424;SDS011;15244;49.088;11.886;2023-06-24T05:06:30;5.03;;;4.72;;
27424;SDS011;15244;49.088;11.886;2023-06-24T05:11:32;5.65;;;5.25;;
27424;SDS011;15244;49.088;11.886;2023-06-24T05:16:34;5.65;;;4.97;;
27424;SDS011;15244;49.088;11.886;2023-06-24T05:21:35;5.80;;;5.22;;
27424;SDS011;15244;49.088;11.886;2023-06-24T05:26:37;5.95;;;5.47;;
27424;SDS011;15244;49.088;11.886;2023-06-24T05:31:39;6.93;;;6.32;;
27424;SDS011;15244;49.088;11.886;2023-06-24T05:36:42;6.65;;;6.05;;
27424;SDS011;15244;49.088;11.886;2023-06-24T05:41:43;5.95;;;5.55;;
27424;SDS011;15244;49.088;11.886;2023-06-24T05:46:45;6.03;;;5.60;;
27424;SDS011;15244;49.088;11.886;2023-06-24T05:51:47;5.75;;;5.25;;
27424;SDS011;15244;49.088;11.886;2023-06-24T05:56:48;5.53;;;5.15;;
27424;SDS011;15244;49.088;11.886;2023-06-24T06:01:50;4.80;;;4.50;;
27424;SDS011;15244;49.088;11.886;2023-06-24T06:06:51;5.25;;;4.82;;
27424;SDS011;15244;49.088;11.886;2023-06-24T06:11:53;5.40;;;4.90;;
27424;SDS011;15244;49.088;11.886;2023-06-24T06:16:55;5.72;;;5.22;;
27424;SDS011;15244;49.088;11.886;2023-06-24T06:21:56;5.18;;;4.65;;
27424;SDS011;15244;49.088;11.886;2023-06-24T06:26:58;5.22;;;4.82;;
27424;SDS011;15244;49.088;11.886;2023-06-24T06:32:00;5.55;;;5.05;;
27424;SDS011;15244;49.088;11.886;2023-06-24T06:37:02;3.85;;;3.65;;
27424;SDS011;15244;49.088;11.886;2023-06-24T06:42:03;4.80;;;4.40;;
27424;SDS011;15244;49.088;11.886;2023-06-24T06:47:05;4.65;;;4.25;;
27424;SDS011;15244;49.088;11.886;2023-06-24T06:52:07;4.47;;;4.18;;
27424;SDS011;15244;49.088;11.886;2023-06-24T06:57:09;3.55;;;3.35;;
27424;SDS011;15244;49.088;11.886;2023-06-24T07:02:10;3.90;;;3.53;;
27424;SDS011;15244;49.088;11.886;2023-06-24T07:07:12;4.25;;;3.90;;
27424;SDS011;15244;49.088;11.886;2023-06-24T07:12:14;3.67;;;3.47;;
27424;SDS011;15244;49.088;11.886;2023-06-24T07:17:15;4.05;;;3.75;;
27424;SDS011;15244;49.088;11.886;2023-06-24T07:22:17;3.83;;;3.60;;
27424;SDS011;15244;49.088;11.886;2023-06-24T07:27:18;4.00;;;3.70;;
27424;SDS011;15244;49.088;11.886;2023-06-24T07:32:20;4.05;;;3.75;;
27424;SDS011;15244;49.088;11.886;2023-06-24T07:37:22;4.45;;;4.20;;
27424;SDS011;15244;49.088;11.886;2023-06-24T07:42:25;5.00;;;4.65;;
27424;SDS011;15244;49.088;11.886;2023-06-24T07:47:29;5.45;;;4.65;;
27424;SDS011;15244;49.088;11.886;2023-06-24T07:52:30;5.28;;;4.78;;
27424;SDS011;15244;49.088;11.886;2023-06-24T07:57:32;4.47;;;4.10;;
27424;SDS011;15244;49.088;11.886;2023-06-24T08:02:33;3.80;;;3.60;;
27424;SDS011;15244;49.088;11.886;2023-06-24T08:07:36;4.20;;;3.78;;
27424;SDS011;15244;49.088;11.886;2023-06-24T08:12:38;4.63;;;4.22;;
27424;SDS011;15244;49.088;11.886;2023-06-24T08:17:40;4.18;;;3.78;;
27424;SDS011;15244;49.088;11.886;2023-06-24T08:22:42;5.40;;;3.85;;
27424;SDS011;15244;49.088;11.886;2023-06-24T08:27:43;4.10;;;3.80;;
27424;SDS011;15244;49.088;11.886;2023-06-24T08:32:47;4.18;;;3.88;;
27424;SDS011;15244;49.088;11.886;2023-06-24T08:37:49;3.58;;;3.28;;
27424;SDS011;15244;49.088;11.886;2023-06-24T08:42:51;3.70;;;3.40;;
27424;SDS011;15244;49.088;11.886;2023-06-24T08:47:53;4.15;;;3.75;;
27424;SDS011;15244;49.088;11.886;2023-06-24T08:52:56;3.20;;;3.00;;
27424;SDS011;15244;49.088;11.886;2023-06-24T08:57:59;4.10;;;3.05;;
27424;SDS011;15244;49.088;11.886;2023-06-24T09:03:01;3.58;;;3.38;;
27424;SDS011;15244;49.088;11.886;2023-06-24T09:08:03;3.42;;;3.22;;
27424;SDS011;15244;49.088;11.886;2023-06-24T09:13:06;2.63;;;2.53;;
27424;SDS011;15244;49.088;11.886;2023-06-24T09:18:08;3.13;;;2.92;;
27424;SDS011;15244;49.088;11.886;2023-06-24T09:23:12;3.55;;;3.35;;
27424;SDS011;15244;49.088;11.886;2023-06-24T09:28:13;3.25;;;3.10;;
27424;SDS011;15244;49.088;11.886;2023-06-24T09:33:15;3.17;;;2.97;;
27424;SDS011;15244;49.088;11.886;2023-06-24T09:38:33;3.03;;;2.83;;
27424;SDS011;15244;49.088;11.886;2023-06-24T09:43:36;2.55;;;2.45;;
27424;SDS011;15244;49.088;11.886;2023-06-24T09:48:41;3.30;;;3.10;;
27424;SDS011;15244;49.088;11.886;2023-06-24T09:53:42;2.78;;;2.58;;
27424;SDS011;15244;49.088;11.886;2023-06-24T09:58:45;2.70;;;2.50;;
27424;SDS011;15244;49.088;11.886;2023-06-24T10:03:47;2.65;;;2.50;;
27424;SDS011;15244;49.088;11.886;2023-06-24T10:08:50;3.22;;;3.03;;
27424;SDS011;15244;49.088;11.886;2023-06-24T10:13:52;2.88;;;2.67;;
27424;SDS011;15244;49.088;11.886;2023-06-24T10:18:59;2.53;;;2.33;;
27424;SDS011;15244;49.088;11.886;2023-06-24T10:24:02;2.60;;;2.40;;
27424;SDS011;15244;49.088;11.886;2023-06-24T10:39:36;3.00;;;2.80;;
27424;SDS011;15244;49.088;11.886;2023-06-24T10:44:51;2.38;;;2.28;;
27424;SDS011;15244;49.088;11.886;2023-06-24T10:49:54;2.80;;;2.63;;
27424;SDS011;15244;49.088;11.886;2023-06-24T10:54:56;2.95;;;2.75;;
27424;SDS011;15244;49.088;11.886;2023-06-24T10:59:58;2.25;;;2.05;;
27424;SDS011;15244;49.088;11.886;2023-06-24T11:05:02;2.30;;;2.20;;
27424;SDS011;15244;49.088;11.886;2023-06-24T11:10:15;2.20;;;2.10;;
27424;SDS011;15244;49.088;11.886;2023-06-24T11:15:16;2.67;;;2.58;;
27424;SDS011;15244;49.088;11.886;2023-06-24T11:20:20;2.47;;;2.10;;
27424;SDS011;15244;49.088;11.886;2023-06-24T11:25:22;2.70;;;2.50;;
27424;SDS011;15244;49.088;11.886;2023-06-24T11:30:23;2.60;;;2.40;;
27424;SDS011;15244;49.088;11.886;2023-06-24T11:35:25;2.25;;;2.15;;
27424;SDS011;15244;49.088;11.886;2023-06-24T11:40:27;2.17;;;2.08;;
27424;SDS011;15244;49.088;11.886;2023-06-24T11:45:29;2.05;;;1.95;;
27424;SDS011;15244;49.088;11.886;2023-06-24T11:50:32;2.35;;;2.25;;
27424;SDS011;15244;49.088;11.886;2023-06-24T11:55:34;2.00;;;1.90;;
27424;SDS011;15244;49.088;11.886;2023-06-24T12:00:38;3.25;;;2.45;;
27424;SDS011;15244;49.088;11.886;2023-06-24T12:05:42;2.40;;;2.30;;
27424;SDS011;15244;49.088;11.886;2023-06-24T12:10:48;2.70;;;2.50;;
27424;SDS011;15244;49.088;11.886;2023-06-24T12:15:50;2.35;;;2.25;;
27424;SDS011;15244;49.088;11.886;2023-06-24T12:20:52;2.05;;;1.95;;
27424;SDS011;15244;49.088;11.886;2023-06-24T12:25:53;2.13;;;2.03;;
27424;SDS011;15244;49.088;11.886;2023-06-24T12:30:55;2.45;;;2.25;;
27424;SDS011;15244;49.088;11.886;2023-06-24T12:35:56;2.10;;;2.00;;
27424;SDS011;15244;49.088;11.886;2023-06-24T12:41:00;3.20;;;3.00;;
27424;SDS011;15244;49.088;11.886;2023-06-24T12:46:01;2.47;;;2.28;;
27424;SDS011;15244;49.088;11.886;2023-06-24T12:51:03;2.08;;;1.98;;
27424;SDS011;15244;49.088;11.886;2023-06-24T12:56:04;4.65;;;2.20;;
27424;SDS011;15244;49.088;11.886;2023-06-24T13:01:06;2.85;;;2.65;;
27424;SDS011;15244;49.088;11.886;2023-06-24T13:06:08;2.35;;;2.25;;
27424;SDS011;15244;49.088;11.886;2023-06-24T13:11:10;2.53;;;2.42;;
27424;SDS011;15244;49.088;11.886;2023-06-24T13:16:11;1.98;;;1.88;;
27424;SDS011;15244;49.088;11.886;2023-06-24T13:21:13;1.98;;;1.88;;
27424;SDS011;15244;49.088;11.886;2023-06-24T13:26:17;1.88;;;1.77;;
27424;SDS011;15244;49.088;11.886;2023-06-24T13:31:18;2.08;;;1.98;;
27424;SDS011;15244;49.088;11.886;2023-06-24T13:36:36;2.00;;;1.90;;
27424;SDS011;15244;49.088;11.886;2023-06-24T13:41:39;2.28;;;2.17;;
27424;SDS011;15244;49.088;11.886;2023-06-24T13:46:40;2.47;;;2.38;;
27424;SDS011;15244;49.088;11.886;2023-06-24T13:51:42;2.97;;;2.78;;
27424;SDS011;15244;49.088;11.886;2023-06-24T13:56:44;2.47;;;2.28;;
27424;SDS011;15244;49.088;11.886;2023-06-24T14:01:46;2.50;;;2.38;;
27424;SDS011;15244;49.088;11.886;2023-06-24T14:06:47;3.22;;;2.60;;
27424;SDS011;15244;49.088;11.886;2023-06-24T14:11:49;2.70;;;2.50;;
27424;SDS011;15244;49.088;11.886;2023-06-24T14:16:50;2.15;;;2.05;;
27424;SDS011;15244;49.088;11.886;2023-06-24T14:21:52;1.88;;;1.77;;
27424;SDS011;15244;49.088;11.886;2023-06-24T14:26:54;2.60;;;2.40;;
27424;SDS011;15244;49.088;11.886;2023-06-24T14:31:56;2.08;;;1.98;;
27424;SDS011;15244;49.088;11.886;2023-06-24T14:36:57;2.83;;;2.60;;
27424;SDS011;15244;49.088;11.886;2023-06-24T14:41:59;2.17;;;2.08;;
27424;SDS011;15244;49.088;11.886;2023-06-24T14:47:00;2.60;;;2.45;;
27424;SDS011;15244;49.088;11.886;2023-06-24T14:52:02;2.60;;;2.50;;
27424;SDS011;15244;49.088;11.886;2023-06-24T14:57:04;2.50;;;2.30;;
27424;SDS011;15244;49.088;11.886;2023-06-24T15:02:06;2.30;;;2.20;;
27424;SDS011;15244;49.088;11.886;2023-06-24T15:07:07;2.10;;;2.00;;
27424;SDS011;15244;49.088;11.886;2023-06-24T15:12:09;2.25;;;2.15;;
27424;SDS011;15244;49.088;11.886;2023-06-24T15:17:11;2.42;;;2.30;;
27424;SDS011;15244;49.088;11.886;2023-06-24T15:22:13;2.20;;;2.10;;
27424;SDS011;15244;49.088;11.886;2023-06-24T15:27:15;2.20;;;2.10;;
27424;SDS011;15244;49.088;11.886;2023-06-24T15:32:16;2.25;;;2.15;;
27424;SDS011;15244;49.088;11.886;2023-06-24T15:37:18;2.08;;;1.98;;
27424;SDS011;15244;49.088;11.886;2023-06-24T15:42:19;2.38;;;2.17;;
27424;SDS011;15244;49.088;11.886;2023-06-24T15:47:21;2.10;;;2.00;;
27424;SDS011;15244;49.088;11.886;2023-06-24T15:52:23;2.50;;;2.30;;
27424;SDS011;15244;49.088;11.886;2023-06-24T15:57:24;3.30;;;2.17;;
27424;SDS011;15244;49.088;11.886;2023-06-24T16:02:26;2.50;;;2.30;;
27424;SDS011;15244;49.088;11.886;2023-06-24T16:07:28;2.60;;;2.40;;
27424;SDS011;15244;49.088;11.886;2023-06-24T16:12:29;2.30;;;2.17;;
27424;SDS011;15244;49.088;11.886;2023-06-24T16:17:31;2.50;;;2.40;;
27424;SDS011;15244;49.088;11.886;2023-06-24T16:22:32;2.40;;;2.30;;
27424;SDS011;15244;49.088;11.886;2023-06-24T16:27:35;2.72;;;2.53;;
27424;SDS011;15244;49.088;11.886;2023-06-24T16:32:36;2.65;;;2.55;;
27424;SDS011;15244;49.088;11.886;2023-06-24T16:37:38;2.47;;;2.38;;
27424;SDS011;15244;49.088;11.886;2023-06-24T16:42:42;3.30;;;3.10;;
27424;SDS011;15244;49.088;11.886;2023-06-24T16:47:44;3.00;;;2.80;;
27424;SDS011;15244;49.088;11.886;2023-06-24T16:52:45;3.30;;;3.10;;
27424;SDS011;15244;49.088;11.886;2023-06-24T16:57:47;3.25;;;3.05;;
27424;SDS011;15244;49.088;11.886;2023-06-24T17:02:49;3.30;;;3.10;;
27424;SDS011;15244;49.088;11.886;2023-06-24T17:07:50;3.45;;;3.08;;
27424;SDS011;15244;49.088;11.886;2023-06-24T17:12:52;3.40;;;3.20;;
27424;SDS011;15244;49.088;11.886;2023-06-24T17:17:54;3.40;;;3.20;;
27424;SDS011;15244;49.088;11.886;2023-06-24T17:22:55;3.65;;;3.45;;
27424;SDS011;15244;49.088;11.886;2023-06-24T17:27:58;3.47;;;3.20;;
27424;SDS011;15244;49.088;11.886;2023-06-24T17:33:00;3.00;;;2.80;;
27424;SDS011;15244;49.088;11.886;2023-06-24T17:38:01;2.65;;;2.55;;
27424;SDS011;15244;49.088;11.886;2023-06-24T17:43:03;2.50;;;2.40;;
27424;SDS011;15244;49.088;11.886;2023-06-24T17:48:04;2.70;;;2.60;;
27424;SDS011;15244;49.088;11.886;2023-06-24T17:53:06;3.35;;;3.15;;
27424;SDS011;15244;49.088;11.886;2023-06-24T17:58:08;3.65;;;3.45;;
27424;SDS011;15244;49.088;11.886;2023-06-24T18:03:10;3.28;;;3.08;;
27424;SDS011;15244;49.088;11.886;2023-06-24T18:08:31;3.15;;;2.90;;
27424;SDS011;15244;49.088;11.886;2023-06-24T18:13:33;3.30;;;3.10;;
27424;SDS011;15244;49.088;11.886;2023-06-24T18:18:34;2.75;;;2.65;;
27424;SDS011;15244;49.088;11.886;2023-06-24T18:23:36;3.97;;;3.20;;
27424;SDS011;15244;49.088;11.886;2023-06-24T18:28:38;3.25;;;3.00;;
27424;SDS011;15244;49.088;11.886;2023-06-24T18:33:40;3.40;;;3.10;;
27424;SDS011;15244;49.088;11.886;2023-06-24T18:38:41;3.05;;;2.95;;
27424;SDS011;15244;49.088;11.886;2023-06-24T18:43:43;3.42;;;3.20;;
27424;SDS011;15244;49.088;11.886;2023-06-24T18:48:44;3.70;;;3.40;;
27424;SDS011;15244;49.088;11.886;2023-06-24T18:53:47;2.92;;;2.78;;
27424;SDS011;15244;49.088;11.886;2023-06-24T18:58:48;3.00;;;2.80;;
27424;SDS011;15244;49.088;11.886;2023-06-24T19:03:50;3.30;;;3.10;;
27424;SDS011;15244;49.088;11.886;2023-06-24T19:08:52;3.15;;;2.95;;
27424;SDS011;15244;49.088;11.886;2023-06-24T19:13:53;3.45;;;3.25;;
27424;SDS011;15244;49.088;11.886;2023-06-24T19:18:55;3.70;;;3.50;;
27424;SDS011;15244;49.088;11.886;2023-06-24T19:23:56;4.28;;;3.70;;
27424;SDS011;15244;49.088;11.886;2023-06-24T19:28:58;3.80;;;3.53;;
27424;SDS011;15244;49.088;11.886;2023-06-24T19:34:00;3.95;;;3.65;;
27424;SDS011;15244;49.088;11.886;2023-06-24T19:39:01;3.53;;;3.33;;
27424;SDS011;15244;49.088;11.886;2023-06-24T19:44:04;3.95;;;3.75;;
27424;SDS011;15244;49.088;11.886;2023-06-24T19:49:07;4.28;;;3.85;;
27424;SDS011;15244;49.088;11.886;2023-06-24T19:54:08;4.13;;;3.83;;
27424;SDS011;15244;49.088;11.886;2023-06-24T19:59:10;4.20;;;3.85;;
27424;SDS011;15244;49.088;11.886;2023-06-24T20:04:12;4.07;;;3.78;;
27424;SDS011;15244;49.088;11.886;2023-06-24T20:09:13;4.38;;;4.07;;
27424;SDS011;15244;49.088;11.886;2023-06-24T20:14:15;4.95;;;4.55;;
27424;SDS011;15244;49.088;11.886;2023-06-24T20:19:16;4.20;;;4.00;;
27424;SDS011;15244;49.088;11.886;2023-06-24T20:24:18;5.00;;;4.57;;
27424;SDS011;15244;49.088;11.886;2023-06-24T20:29:20;4.28;;;3.97;;
27424;SDS011;15244;49.088;11.886;2023-06-24T20:34:23;4.47;;;4.10;;
27424;SDS011;15244;49.088;11.886;2023-06-24T20:39:24;5.72;;;4.57;;
27424;SDS011;15244;49.088;11.886;2023-06-24T20:44:28;4.28;;;3.97;;
27424;SDS011;15244;49.088;11.886;2023-06-24T20:49:29;4.68;;;4.30;;
27424;SDS011;15244;49.088;11.886;2023-06-24T20:54:31;4.15;;;3.85;;
27424;SDS011;15244;49.088;11.886;2023-06-24T20:59:33;4.50;;;4.20;;
27424;SDS011;15244;49.088;11.886;2023-06-24T21:04:35;4.43;;;4.13;;
27424;SDS011;15244;49.088;11.886;2023-06-24T21:09:37;4.05;;;3.75;;
27424;SDS011;15244;49.088;11.886;2023-06-24T21:14:38;4.50;;;4.10;;
27424;SDS011;15244;49.088;11.886;2023-06-24T21:19:40;4.53;;;4.22;;
27424;SDS011;15244;49.088;11.886;2023-06-24T21:24:42;4.55;;;4.15;;
27424;SDS011;15244;49.088;11.886;2023-06-24T21:29:43;4.53;;;4.22;;
27424;SDS011;15244;49.088;11.886;2023-06-24T21:34:45;4.15;;;3.83;;
27424;SDS011;15244;49.088;11.886;2023-06-24T21:39:46;4.28;;;3.88;;
27424;SDS011;15244;49.088;11.886;2023-06-24T21:44:48;3.83;;;3.63;;
27424;SDS011;15244;49.088;11.886;2023-06-24T21:49:49;4.18;;;3.78;;
27424;SDS011;15244;49.088;11.886;2023-06-24T21:54:51;4.82;;;4.43;;
27424;SDS011;15244;49.088;11.886;2023-06-24T21:59:53;4.43;;;4.10;;
27424;SDS011;15244;49.088;11.886;2023-06-24T22:04:54;4.53;;;4.22;;
27424;SDS011;15244;49.088;11.886;2023-06-24T22:09:56;4.43;;;4.03;;
27424;SDS011;15244;49.088;11.886;2023-06-24T22:14:57;4.13;;;3.83;;
27424;SDS011;15244;49.088;11.886;2023-06-24T22:19:59;4.70;;;4.30;;
27424;SDS011;15244;49.088;11.886;2023-06-24T22:25:01;5.60;;;4.00;;
27424;SDS011;15244;49.088;11.886;2023-06-24T22:30:03;4.82;;;4.30;;
27424;SDS011;15244;49.088;11.886;2023-06-24T22:35:06;4.40;;;4.10;;
27424;SDS011;15244;49.088;11.886;2023-06-24T22:40:08;4.47;;;4.18;;
27424;SDS011;15244;49.088;11.886;2023-06-24T22:45:10;4.13;;;3.83;;
27424;SDS011;15244;49.088;11.886;2023-06-24T22:50:14;4.60;;;4.30;;
27424;SDS011;15244;49.088;11.886;2023-06-24T22:55:15;4.38;;;4.07;;
27424;SDS011;15244;49.088;11.886;2023-06-24T23:00:17;4.85;;;4.45;;
27424;SDS011;15244;49.088;11.886;2023-06-24T23:05:19;4.70;;;4.38;;
27424;SDS011;15244;49.088;11.886;2023-06-24T23:10:21;4.43;;;4.13;;
27424;SDS011;15244;49.088;11.886;2023-06-24T23:15:23;4.82;;;4.45;;
27424;SDS011;15244;49.088;11.886;2023-06-24T23:20:25;4.25;;;3.95;;
27424;SDS011;15244;49.088;11.886;2023-06-24T23:25:27;4.47;;;4.18;;
27424;SDS011;15244;49.088;11.886;2023-06-24T23:30:32;4.35;;;4.05;;
27424;SDS011;15244;49.088;11.886;2023-06-24T23:35:37;4.82;;;4.45;;
27424;SDS011;15244;49.088;11.886;2023-06-24T23:40:39;4.70;;;4.30;;
27424;SDS011;15244;49.088;11.886;2023-06-24T23:45:41;5.18;;;4.78;;
27424;SDS011;15244;49.088;11.886;2023-06-24T23:50:48;4.78;;;4.47;;
27424;SDS011;15244;49.088;11.886;2023-06-24T23:55:49;5.20;;;4.80;;
